createdAt,value
2019-03-06T00:04:41.286Z,7.53
2019-03-06T00:09:51.173Z,8.93
2019-03-06T00:15:01.609Z,6.87
2019-03-06T00:20:11.266Z,7.13
2019-03-06T00:25:25.581Z,6.78
2019-03-06T00:30:35.437Z,8.90
2019-03-06T00:35:47.489Z,7.50
2019-03-06T00:41:08.205Z,9.40
2019-03-06T00:46:17.705Z,10.93
2019-03-06T00:51:32.431Z,8.90
2019-03-06T00:56:46.248Z,11.47
2019-03-06T01:02:00.584Z,13.73
2019-03-06T01:07:15.491Z,14.93
2019-03-06T01:12:25.543Z,10.18
2019-03-06T01:17:37.254Z,13.43
2019-03-06T01:22:46.587Z,17.60
2019-03-06T01:27:58.053Z,16.70
2019-03-06T01:33:29.248Z,16.50
2019-03-06T01:38:47.879Z,15.50
2019-03-06T01:44:09.420Z,18.53
2019-03-06T01:49:18.596Z,17.77
2019-03-06T01:54:48.872Z,19.23
2019-03-06T02:00:04.106Z,16.80
2019-03-06T02:05:20.117Z,17.73
2019-03-06T02:10:31.873Z,20.20
2019-03-06T02:15:49.072Z,22.30
2019-03-06T02:21:02.038Z,18.90
2019-03-06T02:26:06.219Z,20.77
2019-03-06T02:31:16.051Z,19.95
2019-03-06T02:36:28.654Z,17.10
2019-03-06T02:41:37.573Z,18.67
2019-03-06T02:46:49.262Z,20.60
2019-03-06T02:52:00.851Z,17.97
2019-03-06T02:57:09.417Z,17.27
2019-03-06T03:02:26.331Z,18.10
2019-03-06T03:07:36.199Z,15.33
2019-03-06T03:12:46.110Z,21.63
2019-03-06T03:17:58.729Z,19.60
2019-03-06T03:23:09.554Z,16.90
2019-03-06T03:28:19.907Z,14.80
2019-03-06T03:33:27.884Z,15.83
2019-03-06T03:38:37.846Z,16.23
2019-03-06T03:43:49.622Z,12.30
2019-03-06T03:49:03.881Z,13.17
2019-03-06T03:54:13.879Z,11.63
2019-03-06T03:59:25.556Z,15.73
2019-03-06T04:04:34.087Z,12.57
2019-03-06T04:09:45.700Z,8.90
2019-03-06T04:14:59.654Z,16.13
2019-03-06T04:20:08.707Z,14.80
2019-03-06T04:25:20.451Z,12.47
2019-03-06T04:30:32.216Z,11.73
2019-03-06T04:35:45.186Z,9.33
2019-03-06T04:40:57.871Z,12.10
2019-03-06T04:46:08.697Z,11.93
2019-03-06T04:51:16.195Z,14.18
2019-03-06T04:56:26.096Z,13.50
2019-03-06T05:01:38.669Z,12.53
2019-03-06T05:06:51.313Z,13.40
2019-03-06T05:12:05.735Z,9.47
2019-03-06T05:17:21.867Z,9.05
2019-03-06T05:22:34.501Z,9.63
2019-03-06T05:27:42.253Z,11.90
2019-03-06T05:32:50.661Z,12.07
2019-03-06T05:38:18.883Z,11.37
2019-03-06T05:43:30.078Z,12.17
2019-03-06T05:48:37.926Z,10.33
2019-03-06T05:53:48.730Z,10.10
2019-03-06T05:58:59.708Z,15.65
2019-03-06T06:04:09.599Z,14.97
2019-03-06T06:09:17.790Z,9.68
2019-03-06T06:14:28.642Z,9.73
2019-03-06T06:19:41.347Z,12.73
2019-03-06T06:24:53.040Z,12.27
2019-03-06T06:30:07.199Z,9.43
2019-03-06T06:35:19.853Z,9.60
2019-03-06T06:40:33.169Z,10.20
2019-03-06T06:45:46.797Z,11.17
2019-03-06T06:51:15.683Z,13.03
2019-03-06T06:56:49.070Z,12.13
2019-03-06T07:02:44.331Z,14.23
2019-03-06T07:08:21.006Z,16.83
2019-03-06T07:14:04.771Z,13.83
2019-03-06T07:19:35.269Z,12.43
2019-03-06T07:25:11.315Z,13.67
2019-03-06T07:30:42.052Z,16.85
2019-03-06T07:36:20.490Z,16.77
2019-03-06T07:41:45.468Z,14.37
2019-03-06T07:47:20.675Z,14.40
2019-03-06T07:52:39.613Z,12.37
2019-03-06T07:58:22.409Z,15.33
2019-03-06T08:03:42.885Z,13.63
2019-03-06T08:08:53.637Z,13.87
2019-03-06T08:14:09.572Z,14.47
2019-03-06T08:19:36.807Z,14.03
2019-03-06T08:25:04.646Z,12.43
2019-03-06T08:30:14.847Z,12.83
2019-03-06T08:35:29.032Z,10.20
2019-03-06T08:40:37.337Z,11.50
2019-03-06T08:46:14.535Z,11.17
2019-03-06T08:51:44.387Z,10.28
2019-03-06T08:57:23.205Z,7.93
2019-03-06T09:03:08.450Z,7.70
2019-03-06T09:08:30.591Z,8.87
2019-03-06T09:13:59.512Z,10.97
2019-03-06T09:19:28.004Z,8.23
2019-03-06T09:24:58.855Z,9.37
2019-03-06T09:30:34.674Z,7.97
2019-03-06T09:36:01.383Z,7.50
2019-03-06T09:41:28.139Z,10.07
2019-03-06T09:47:07.941Z,10.00
2019-03-06T09:52:40.099Z,9.05
2019-03-06T09:58:24.739Z,9.30
2019-03-06T10:03:59.234Z,10.27
2019-03-06T10:09:21.513Z,7.67
2019-03-06T10:14:41.610Z,4.53
2019-03-06T10:19:59.026Z,5.83
2019-03-06T10:25:08.569Z,7.37
2019-03-06T10:30:20.392Z,6.27
2019-03-06T10:35:29.666Z,6.60
2019-03-06T10:40:37.789Z,8.50
2019-03-06T10:45:52.157Z,5.13
2019-03-06T10:51:02.054Z,7.57
2019-03-06T10:56:17.163Z,6.30
2019-03-06T11:01:29.743Z,5.03
2019-03-06T11:06:43.209Z,6.00
2019-03-06T11:11:50.903Z,8.23
2019-03-06T11:16:57.852Z,6.63
2019-03-06T11:22:09.138Z,8.07
2019-03-06T11:27:16.867Z,5.10
2019-03-06T11:32:26.147Z,5.25
2019-03-06T11:37:37.096Z,4.10
2019-03-06T11:42:49.028Z,5.67
2019-03-06T11:48:00.770Z,3.47
2019-03-06T11:53:11.978Z,7.83
2019-03-06T11:58:21.864Z,3.60
2019-03-06T12:03:33.019Z,3.83
2019-03-06T12:08:45.559Z,5.70
2019-03-06T12:13:51.356Z,5.67
2019-03-06T12:19:03.183Z,5.73
2019-03-06T12:24:14.850Z,4.53
2019-03-06T12:29:27.908Z,6.30
2019-03-06T12:34:36.930Z,6.47
2019-03-06T12:39:46.914Z,7.40
2019-03-06T12:44:59.605Z,7.47
2019-03-06T12:50:10.359Z,5.40
2019-03-06T12:55:19.006Z,5.55
2019-03-06T13:00:29.392Z,4.97
2019-03-06T13:05:47.015Z,5.00
2019-03-06T13:10:58.790Z,6.37
2019-03-06T13:16:07.465Z,7.93
2019-03-06T13:21:19.362Z,5.42
2019-03-06T13:26:29.953Z,5.93
2019-03-06T13:31:42.714Z,4.63
2019-03-06T13:36:53.674Z,6.77
2019-03-06T13:42:09.058Z,6.90
2019-03-06T13:47:18.933Z,5.07
2019-03-06T13:52:28.274Z,4.97
2019-03-06T13:57:37.417Z,5.23
2019-03-06T14:02:45.171Z,6.47
2019-03-06T14:07:56.537Z,5.80
2019-03-06T14:13:01.712Z,6.47
2019-03-06T14:18:11.671Z,4.17
2019-03-06T14:23:34.634Z,6.10
2019-03-06T14:28:33.533Z,3.63
2019-03-06T14:33:45.155Z,5.17
2019-03-06T14:38:54.180Z,7.53
2019-03-06T14:44:03.552Z,5.57
2019-03-06T14:49:14.694Z,8.13
2019-03-06T14:54:28.517Z,7.83
2019-03-06T14:59:39.220Z,4.63
2019-03-06T15:04:50.786Z,5.23
2019-03-06T15:10:03.411Z,2.67
2019-03-06T15:15:11.972Z,3.90
2019-03-06T15:20:23.861Z,6.83
2019-03-06T15:25:33.732Z,5.03
2019-03-06T15:30:51.045Z,8.20
2019-03-06T15:36:01.412Z,7.17
2019-03-06T15:41:12.345Z,5.57
2019-03-06T15:46:26.894Z,5.70
2019-03-06T15:51:37.357Z,4.23
2019-03-06T15:56:46.423Z,4.93
2019-03-06T16:01:56.334Z,5.83
2019-03-06T16:07:02.890Z,4.20
2019-03-06T16:12:14.583Z,4.83
2019-03-06T16:17:23.763Z,3.80
2019-03-06T16:22:32.166Z,6.83
2019-03-06T16:27:40.713Z,4.37
2019-03-06T16:32:51.704Z,3.77
2019-03-06T16:38:01.593Z,5.67
2019-03-06T16:43:09.213Z,6.43
2019-03-06T16:48:19.975Z,4.25
2019-03-06T16:53:28.916Z,6.77
2019-03-06T16:58:40.994Z,5.70
2019-03-06T17:03:54.626Z,7.37
2019-03-06T17:09:08.791Z,7.47
2019-03-06T17:14:27.205Z,5.43
2019-03-06T17:19:42.594Z,5.50
2019-03-06T17:24:56.176Z,7.23
2019-03-06T17:30:04.523Z,8.17
2019-03-06T17:36:15.273Z,9.90
2019-03-06T17:41:31.488Z,5.07
2019-03-06T17:46:39.143Z,6.50
2019-03-06T17:51:53.617Z,4.93
2019-03-06T17:57:09.828Z,5.47
2019-03-06T18:02:18.341Z,8.55
2019-03-06T18:07:25.550Z,8.23
2019-03-06T18:12:40.129Z,5.80
2019-03-06T18:17:53.786Z,6.77
2019-03-06T18:22:58.430Z,5.42
2019-03-06T18:28:05.307Z,6.10
2019-03-06T18:33:15.148Z,5.55
2019-03-06T18:38:29.571Z,4.25
2019-03-06T18:43:37.667Z,6.40
2019-03-06T18:48:47.587Z,4.80
2019-03-06T18:53:55.243Z,4.97
2019-03-06T18:59:02.996Z,6.00
2019-03-06T19:04:16.515Z,6.57
2019-03-06T19:09:32.163Z,3.90
2019-03-06T19:14:43.267Z,5.23
2019-03-06T19:19:55.814Z,4.93
2019-03-06T19:25:09.357Z,8.33
2019-03-06T19:30:27.590Z,5.47
2019-03-06T19:35:40.868Z,5.37
2019-03-06T19:40:51.746Z,8.67
2019-03-06T19:46:05.148Z,7.23
2019-03-06T19:51:13.550Z,6.22
2019-03-06T19:56:23.949Z,6.03
2019-03-06T20:01:33.892Z,6.47
2019-03-06T20:06:45.686Z,7.10
2019-03-06T20:11:54.349Z,5.05
2019-03-06T20:17:07.976Z,7.10
2019-03-06T20:22:17.453Z,6.22
2019-03-06T20:27:37.834Z,7.35
2019-03-06T20:32:48.873Z,6.17
2019-03-06T20:37:57.305Z,5.93
2019-03-06T20:43:09.893Z,7.70
2019-03-06T20:48:18.465Z,7.33
2019-03-06T20:53:29.590Z,6.47
2019-03-06T20:58:37.865Z,6.37
2019-03-06T21:03:50.333Z,7.20
2019-03-06T21:09:03.551Z,7.17
2019-03-06T21:14:15.730Z,10.07
2019-03-06T21:19:29.506Z,7.73
2019-03-06T21:24:38.445Z,6.90
2019-03-06T21:29:53.195Z,8.37
2019-03-06T21:35:05.123Z,8.20
2019-03-06T21:40:14.201Z,8.80
2019-03-06T21:45:23.133Z,7.90
2019-03-06T21:50:34.571Z,7.27
2019-03-06T21:55:45.032Z,10.17
2019-03-06T22:00:58.587Z,10.10
2019-03-06T22:06:11.111Z,10.20
2019-03-06T22:11:23.142Z,9.93
2019-03-06T22:16:35.078Z,8.93
2019-03-06T22:21:45.830Z,8.67
2019-03-06T22:26:55.730Z,8.70
2019-03-06T22:32:04.878Z,7.43
2019-03-06T22:37:17.490Z,9.17
2019-03-06T22:42:31.846Z,6.70
2019-03-06T22:47:47.243Z,7.83
2019-03-06T22:52:56.134Z,6.90
2019-03-06T22:58:10.468Z,10.47
2019-03-06T23:03:20.997Z,7.80
2019-03-06T23:08:32.675Z,8.23
2019-03-06T23:13:42.178Z,9.20
2019-03-06T23:18:51.137Z,9.70
2019-03-06T23:23:59.727Z,8.03
2019-03-06T23:29:09.589Z,8.07
2019-03-06T23:34:23.108Z,6.90
2019-03-06T23:39:34.863Z,10.90
2019-03-06T23:44:44.005Z,8.37
2019-03-06T23:49:53.445Z,8.33
2019-03-06T23:55:04.687Z,9.30
